Map

Track Data

SID SEASON NUMBER BASIN SUBBASIN NAME ISO_TIME NATURE LAT LON WMO_WIND WMO_PRES WMO_AGENCY TRACK_TYPE DIST2LAND LANDFALL IFLAG USA_AGENCY USA_ATCF_ID USA_LAT USA_LON USA_RECORD USA_STATUS USA_WIND USA_PRES USA_SSHS USA_R34_NE USA_R34_SE USA_R34_SW USA_R34_NW USA_R50_NE USA_R50_SE USA_R50_SW USA_R50_NW USA_R64_NE USA_R64_SE USA_R64_SW USA_R64_NW USA_POCI USA_ROCI USA_RMW USA_EYE TOKYO_LAT TOKYO_LON TOKYO_GRADE TOKYO_WIND TOKYO_PRES TOKYO_R50_DIR TOKYO_R50_LONG TOKYO_R50_SHORT TOKYO_R30_DIR TOKYO_R30_LONG TOKYO_R30_SHORT TOKYO_LAND CMA_LAT CMA_LON CMA_CAT CMA_WIND CMA_PRES HKO_LAT HKO_LON HKO_CAT HKO_WIND HKO_PRES NEWDELHI_LAT NEWDELHI_LON NEWDELHI_GRADE NEWDELHI_WIND NEWDELHI_PRES NEWDELHI_CI NEWDELHI_DP NEWDELHI_POCI REUNION_LAT REUNION_LON REUNION_TYPE REUNION_WIND REUNION_PRES REUNION_TNUM REUNION_CI REUNION_RMW REUNION_R34_NE REUNION_R34_SE REUNION_R34_SW REUNION_R34_NW REUNION_R50_NE REUNION_R50_SE REUNION_R50_SW REUNION_R50_NW REUNION_R64_NE REUNION_R64_SE REUNION_R64_SW REUNION_R64_NW BOM_LAT BOM_LON BOM_TYPE BOM_WIND BOM_PRES BOM_TNUM BOM_CI BOM_RMW BOM_R34_NE BOM_R34_SE BOM_R34_SW BOM_R34_NW BOM_R50_NE BOM_R50_SE BOM_R50_SW BOM_R50_NW BOM_R64_NE BOM_R64_SE BOM_R64_SW BOM_R64_NW BOM_ROCI BOM_POCI BOM_EYE BOM_POS_METHOD BOM_PRES_METHOD NADI_LAT NADI_LON NADI_CAT NADI_WIND NADI_PRES WELLINGTON_LAT WELLINGTON_LON WELLINGTON_WIND WELLINGTON_PRES DS824_LAT DS824_LON DS824_STAGE DS824_WIND DS824_PRES TD9636_LAT TD9636_LON TD9636_STAGE TD9636_WIND TD9636_PRES TD9635_LAT TD9635_LON TD9635_WIND TD9635_PRES TD9635_ROCI NEUMANN_LAT NEUMANN_LON NEUMANN_CLASS NEUMANN_WIND NEUMANN_PRES MLC_LAT MLC_LON MLC_CLASS MLC_WIND MLC_PRES USA_GUST BOM_GUST BOM_GUST_PER REUNION_GUST REUNION_GUST_PER USA_SEAHGT USA_SEARAD_NE USA_SEARAD_SE USA_SEARAD_SW USA_SEARAD_NW STORM_SPEED STORM_DIR
1972090N05154 1972 28 WP MM NOT_NAMED 1972-03-30 00:00:00 TS 4.50000 154.400 main 895 895 O________OOO__ jtwc_wp WP021972 4.50000 154.400 25 -1 4.50000 154.400 TC 25 4.50000 154.400 1 25 4.50000 154.400 25 1005 -99 10 90
1972090N05154 1972 28 WP MM NOT_NAMED 1972-03-30 03:00:00 TS 4.49807 154.900 main 921 921 P________PPP__ WP021972 4.51510 154.915 25 -1 4.51510 154.915 TC 25 4.44700 154.853 1 25 4.51510 154.915 25 1005 -99 10 91
1972090N05154 1972 28 WP MM NOT_NAMED 1972-03-30 06:00:00 TS 4.47627 155.379 main 945 945 O________OPO__ jtwc_wp WP021972 4.50000 155.400 25 -1 4.50000 155.400 TC 25 4.40509 155.315 1 25 4.50000 155.400 25 1005 -99 9 94
1972090N05154 1972 28 WP MM NOT_NAMED 1972-03-30 09:00:00 TS 4.42823 155.831 main 957 957 P________PPP__ WP021972 4.44243 155.843 25 -1 4.44243 155.843 TC 25 4.38565 155.795 1 25 4.44243 155.843 25 1005 -99 9 95
1972090N05154 1972 28 WP MM NOT_NAMED 1972-03-30 12:00:00 TS 4.40000 156.300 main 986 986 O________OOO__ jtwc_wp WP021972 4.40000 156.300 25 -1 4.40000 156.300 TC 25 4.40000 156.300 1 25 4.40000 156.300 25 1006 -99 10 89
1972090N05154 1972 28 WP MM NOT_NAMED 1972-03-30 15:00:00 TS 4.43947 156.841 main 1014 1014 P________PPP__ WP021972 4.43501 156.842 25 -1 4.43501 156.842 TC 25 4.45286 156.835 1 25 4.43501 156.842 25 1006 -99 11 84
1972090N05154 1972 28 WP MM NOT_NAMED 1972-03-30 18:00:00 TS 4.50565 157.395 main 1060 1060 O________OPO__ jtwc_wp WP021972 4.50000 157.400 25 -1 4.50000 157.400 TC 25 4.52259 157.380 1 25 4.50000 157.400 25 1006 -99 11 84
1972090N05154 1972 28 WP MM NOT_NAMED 1972-03-30 21:00:00 TS 4.55212 157.925 main 1101 1101 P________PPP__ WP021972 4.54249 157.930 25 -1 4.54249 157.930 TC 25 4.58100 157.910 1 25 4.54249 157.930 25 1006 -99 11 86
1972090N05154 1972 28 WP MM NOT_NAMED 1972-03-31 00:00:00 TS 4.57647 158.465 main 1142 1142 O_O______OOO__ jtwc_wp WP021972 4.60000 158.400 25 -1 4.20000 159.500 1 29 1000 4.60000 158.400 TC 25 4.60000 158.400 1 25 4.60000 158.400 25 1006 -99 9 83
1972090N05154 1972 28 WP MM NOT_NAMED 1972-03-31 03:00:00 TS 4.65787 158.833 main 1172 1172 P_P______PPP__ WP021972 4.75243 158.765 27 -1 4.29631 159.090 1 29 1000 4.75243 158.765 TC 27 4.55936 158.912 1 26 4.75243 158.765 27 1006 -99 7 80
1972090N05154 1972 28 WP MM NOT_NAMED 1972-03-31 06:00:00 TS 4.70000 159.139 main 1191 1191 O_O______OPO__ jtwc_wp WP021972 4.80000 159.100 30 -1 4.40000 158.700 1 29 1000 4.80000 159.100 TC 30 4.47499 159.368 1 27 4.80000 159.100 30 1006 -99 8 101
1972090N05154 1972 28 WP MM NOT_NAMED 1972-03-31 09:00:00 TS 4.50270 159.610 main 1207 1203 P________PPP__ WP021972 4.55256 159.575 30 -1 1 4.55256 159.575 TC 30 4.35311 159.715 1 28 4.55256 159.575 30 1006 -99 9 123
1972090N05154 1972 28 WP MM NOT_NAMED 1972-03-31 12:00:00 TS 4.20000 159.900 main 1203 1186 O________OOO__ jtwc_wp WP021972 4.20000 159.900 30 -1 1 4.20000 159.900 TC 30 4.20000 159.900 1 30 4.20000 159.900 30 1006 -99 6 156
1972090N05154 1972 28 WP MM NOT_NAMED 1972-03-31 15:00:00 TS 3.94870 159.858 main 1178 1139 P________PPP__ WP021972 3.92747 159.847 27 -1 1 3.92747 159.847 TC 27 4.01238 159.890 1 28 3.92747 159.847 27 1006 -99 6 210
1972090N05154 1972 28 WP MM NOT_NAMED 1972-03-31 18:00:00 TS 3.72497 159.629 main 1139 1115 O________OPO__ jtwc_wp WP021972 3.70000 159.600 25 -1 1 3.70000 159.600 TC 25 3.79989 159.717 1 27 3.70000 159.600 25 1006 -99 6 229
1972090N05154 1972 28 WP MM NOT_NAMED 1972-03-31 21:00:00 TS 3.54810 159.400 main 1107 1077 P________PPP__ WP021972 3.53498 159.388 25 -1 1 3.53498 159.388 TC 25 3.58744 159.436 1 26 3.53498 159.388 25 1006 -99 6 238
1972090N05154 1972 28 WP MM NOT_NAMED 1972-04-01 00:00:00 TS 3.40000 159.100 main 1077 1031 O________OOO__ jtwc_wp WP021972 3.40000 159.100 25 -1 1 3.40000 159.100 TC 25 3.40000 159.100 1 25 3.40000 159.100 25 1006 -99 8 245
1972090N05154 1972 28 WP MM NOT_NAMED 1972-04-01 03:00:00 TS 3.22988 158.722 main 1031 994 P________PPP__ WP021972 3.23502 158.707 22 -1 1 3.23502 158.707 TC 22 3.21446 158.765 1 25 3.23502 158.707 25 1005 -99 8 248
1972090N05154 1972 28 WP MM NOT_NAMED 1972-04-01 06:00:00 TS 3.09128 158.323 main 994 965 O________OPO__ jtwc_wp WP021972 3.10000 158.300 XX 20 -5 1 3.10000 158.300 TC 20 3.06512 158.392 1 25 3.10000 158.300 25 1005 -99 8 252
1972090N05154 1972 28 WP MM NOT_NAMED 1972-04-01 09:00:00 TS 2.98829 157.983 main 965 946 P________PPP__ WP021972 2.98999 157.970 22 -1 1 2.98999 157.970 TC 22 2.98321 158.024 1 25 2.98999 157.970 25 1004 -99 6 262
1972090N05154 1972 28 WP MM NOT_NAMED 1972-04-01 12:00:00 TS 3.00000 157.700 main 946 939 O________OOO__ jtwc_wp WP021972 3.00000 157.700 25 -1 1 3.00000 157.700 TC 25 3.00000 157.700 1 25 3.00000 157.700 25 1004 -99 6 291
1972090N05154 1972 28 WP MM NOT_NAMED 1972-04-01 15:00:00 TS 3.18905 157.469 main 951 944 P________PPP__ WP021972 3.20499 157.478 25 -1 1 3.20499 157.478 TC 25 3.14121 157.442 1 25 3.20499 157.478 25 1004 -99 6 319
1972090N05154 1972 28 WP MM NOT_NAMED 1972-04-01 18:00:00 TS 3.46999 157.284 main 963 956 O________OPO__ jtwc_wp WP021972 3.50000 157.300 25 -1 1 3.50000 157.300 TC 25 3.37996 157.238 1 25 3.50000 157.300 25 1004 -99 6 326
1972090N05154 1972 28 WP MM NOT_NAMED 1972-04-01 21:00:00 TS 3.72656 157.112 main 968 968 P________PPP__ WP021972 3.74250 157.120 25 -1 1 3.74250 157.120 TC 25 3.67873 157.089 1 25 3.74250 157.120 25 1004 -99 6 332
1972090N05154 1972 28 WP MM NOT_NAMED 1972-04-02 00:00:00 TS 4.00000 157.000 main 989 989 O________OOO__ jtwc_wp WP021972 4.00000 157.000 25 -1 1 4.00000 157.000 TC 25 4.00000 157.000 1 25 4.00000 157.000 25 1005 -99 6 345
1972090N05154 1972 28 WP MM NOT_NAMED 1972-04-02 03:00:00 TS 4.29280 156.963 main 1017 1017 P________PPP__ WP021972 4.29250 156.970 25 -1 1 4.29250 156.970 TC 25 4.29371 156.943 1 25 4.29250 156.970 25 1005 -99 6 359
1972090N05154 1972 28 WP MM NOT_NAMED 1972-04-02 06:00:00 TS 4.59999 156.986 main 1045 1045 O________OPO__ jtwc_wp WP021972 4.60000 157.000 25 -1 1 4.60000 157.000 TC 25 4.59994 156.945 1 25 4.60000 157.000 25 1006 -99 6 5
1972090N05154 1972 28 WP MM NOT_NAMED 1972-04-02 09:00:00 TS 4.90717 157.020 main 1074 1074 P________PPP__ WP021972 4.90749 157.028 25 -1 1 4.90749 157.028 TC 25 4.90621 156.999 1 25 4.90749 157.028 25 1006 -99 6 11
1972090N05154 1972 28 WP MM NOT_NAMED 1972-04-02 12:00:00 TS 5.20000 157.100 main 1108 1108 O________OOO__ jtwc_wp WP021972 5.20000 157.100 25 -1 1 5.20000 157.100 TC 25 5.20000 157.100 1 25 5.20000 157.100 25 1007 -99 6 20
1972090N05154 1972 28 WP MM NOT_NAMED 1972-04-02 15:00:00 TS 5.46124 157.224 main 1143 1143 P________PPP__ WP021972 5.45750 157.228 25 -1 1 5.45750 157.228 TC 25 5.47246 157.212 1 25 5.45750 157.228 25 1006 -99 6 30
1972090N05154 1972 28 WP MM NOT_NAMED 1972-04-02 18:00:00 TS 5.70748 157.392 main 1173 1173 O________OPO__ jtwc_wp WP021972 5.70000 157.400 25 -1 1 5.70000 157.400 TC 25 5.72994 157.368 1 25 5.70000 157.400 25 1006 -99 6 35
1972090N05154 1972 28 WP MM NOT_NAMED 1972-04-02 21:00:00 TS 5.96122 157.574 main 1213 1213 P________PPP__ WP021972 5.95748 157.578 25 -1 1 5.95748 157.578 TC 25 5.97244 157.565 1 25 5.95748 157.578 25 1005 -99 7 37
1972090N05154 1972 28 WP MM NOT_NAMED 1972-04-03 00:00:00 TS 6.28823 157.829 main 1254 1254 O_O______OOO__ jtwc_wp WP021972 6.20000 157.800 25 -1 7.70000 158.300 0 1004 6.20000 157.800 TC 25 6.20000 157.800 1 25 6.20000 157.800 25 1004 -99 8 42
1972090N05154 1972 28 WP MM NOT_NAMED 1972-04-03 03:00:00 TS 6.56361 158.129 main 1300 1300 P_P______PPP__ WP021972 6.40751 158.085 25 -1 7.75239 158.544 0 1004 6.40751 158.085 TC 25 6.43872 158.052 1 23 6.40751 158.085 25 1003 -99 8 50
1972090N05154 1972 28 WP MM NOT_NAMED 1972-04-03 06:00:00 TS 6.80209 158.451 main 1342 1342 O_O______OPO__ jtwc_wp WP021972 6.60000 158.400 25 -1 7.80000 158.800 0 1004 6.60000 158.400 TC 25 6.65994 158.340 1 22 6.60000 158.400 25 1003 -99 8 53
1972090N05154 1972 28 WP MM NOT_NAMED 1972-04-03 09:00:00 TS 7.03372 158.757 main 1379 1379 P_P______PPP__ WP021972 6.82247 158.692 22 -1 7.84999 159.050 0 1004 6.82247 158.692 TC 22 6.85119 158.658 1 21 6.82247 158.692 22 1002 100 7 58
1972090N05154 1972 28 WP MM NOT_NAMED 1972-04-03 12:00:00 TS 7.18000 159.060 main 1416 1416 O_O______OOO__ jtwc_wp WP021972 7.00000 159.000 20 -1 7.90000 159.300 0 1004 7.00000 159.000 TC 20 7.00000 159.000 1 20 7.00000 159.000 20 1002 300 7 71
1972090N05154 1972 28 WP MM NOT_NAMED 1972-04-03 15:00:00 TS 7.25313 159.383 main 1444 1444 P_P______PPP__ WP021972 7.07247 159.335 20 -1 7.94999 159.550 0 1005 7.07247 159.335 TC 20 7.09826 159.360 1 20 7.07247 159.335 20 1003 100 7 77
1972090N05154 1972 28 WP MM NOT_NAMED 1972-04-03 18:00:00 TS 7.33536 159.731 main 1463 1463 O_O______OPO__ jtwc_wp WP021972 7.10000 159.700 20 -1 8.00000 159.800 0 1006 7.10000 159.700 TC 20 7.15526 159.733 1 20 7.10000 159.700 20 1004 -99 7 74
1972090N05154 1972 28 WP MM NOT_NAMED 1972-04-03 21:00:00 TS 7.45205 160.082 main 1508 1508 P_P______PPP__ WP021972 7.14258 160.092 20 -1 8.04999 160.050 0 1006 7.14258 160.092 TC 20 7.18462 160.114 1 20 7.14258 160.092 20 1005 -99 7 65
1972090N05154 1972 28 WP MM NOT_NAMED 1972-04-04 00:00:00 TS 7.65000 160.400 main 1545 1545 O_O______OOO__ jtwc_wp WP021972 7.20000 160.500 20 -1 8.10000 160.300 0 1006 7.20000 160.500 TC 20 7.20000 160.500 1 20 7.20000 160.500 20 1007 -99 8 34
1972090N05154 1972 28 WP MM NOT_NAMED 1972-04-04 03:00:00 TS 8.15000 160.558 main 1594 1594 __P___________ WP021972 -1 8.15000 160.558 0 1006 TC 1 7 36
1972090N05154 1972 28 WP MM NOT_NAMED 1972-04-04 06:00:00 TS 8.20000 160.800 main 1617 1617 __O___________ -1 8.20000 160.800 0 1006 1 5 77
1972090N05154 1972 28 WP MM NOT_NAMED 1972-04-04 09:00:00 TS 8.24997 161.000 main 1630 1630 __P___________ -1 8.24997 161.000 0 1006 1 4 76
1972090N05154 1972 28 WP MM NOT_NAMED 1972-04-04 12:00:00 TS 8.30000 161.200 main 1653 1653 __O___________ -1 8.30000 161.200 0 1006 4 77
1972090N05154 1972 28 WP MM NOT_NAMED 1972-04-04 15:00:00 TS 8.34998 161.435 main 1666 1666 __P___________ -1 8.34998 161.435 0 1006 5 79
1972090N05154 1972 28 WP MM NOT_NAMED 1972-04-04 18:00:00 TS 8.40000 161.700 main 1695 1695 __O___________ -1 8.40000 161.700 0 1006 6 80
1972090N05154 1972 28 WP MM NOT_NAMED 1972-04-04 21:00:00 TS 8.45002 162.008 main 1724 1724 __P___________ -1 8.45002 162.008 0 1006 6 80
1972090N05154 1972 28 WP MM NOT_NAMED 1972-04-05 00:00:00 TS 8.50000 162.300 main 1744 1744 __O___________ -1 8.50000 162.300 0 1006 5 79
1972090N05154 1972 28 WP MM NOT_NAMED 1972-04-05 03:00:00 TS 8.54996 162.515 main 1757 1757 __P___________ -1 8.54996 162.515 0 1006 4 76
1972090N05154 1972 28 WP MM NOT_NAMED 1972-04-05 06:00:00 TS 8.60000 162.700 main 1780 1780 __O___________ -1 8.60000 162.700 0 1006 4 75
1972090N05154 1972 28 WP MM NOT_NAMED 1972-04-05 09:00:00 TS 8.64999 162.900 main 1794 1794 __P___________ -1 8.64999 162.900 0 1006 4 76
1972090N05154 1972 28 WP MM NOT_NAMED 1972-04-05 12:00:00 TS 8.70000 163.100 main 1816 1816 __O___________ -1 8.70000 163.100 0 1006 4 77
1972090N05154 1972 28 WP MM NOT_NAMED 1972-04-05 15:00:00 TS 8.74248 163.293 main 1830 1830 __P___________ -1 8.74248 163.293 0 1006 4 76
1972090N05154 1972 28 WP MM NOT_NAMED 1972-04-05 18:00:00 TS 8.80000 163.500 main 1853 1853 __O___________ -1 8.80000 163.500 0 1006 5 71
1972090N05154 1972 28 WP MM NOT_NAMED 1972-04-05 21:00:00 TS 8.89248 163.735 main 1876 1876 __P___________ -1 8.89248 163.735 0 1007 5 68
1972090N05154 1972 28 WP MM NOT_NAMED 1972-04-06 00:00:00 TS 9.00000 164.000 main 1906 1906 __O___________ -1 9.00000 164.000 0 1008 6 70
1972090N05154 1972 28 WP MM NOT_NAMED 1972-04-06 03:00:00 TS 9.09249 164.293 main 1936 1936 __P___________ -1 9.09249 164.293 0 1008 6 71
1972090N05154 1972 28 WP MM NOT_NAMED 1972-04-06 06:00:00 TS 9.20000 164.600 main 1964 1964 __O___________ -1 9.20000 164.600 0 1008 7 68
1972090N05154 1972 28 WP MM NOT_NAMED 1972-04-06 09:00:00 TS 9.34251 164.915 main 1992 1992 __P___________ -1 9.34251 164.915 0 1008 7 63
1972090N05154 1972 28 WP MM NOT_NAMED 1972-04-06 12:00:00 TS 9.50000 165.200 main 2029 2029 __O___________ -1 9.50000 165.200 0 1008 6 57
1972090N05154 1972 28 WP MM NOT_NAMED 1972-04-06 15:00:00 TS 9.65746 165.415 main 2060 2060 __P___________ -1 9.65746 165.415 0 1008 5 53
1972090N05154 1972 28 WP MM NOT_NAMED 1972-04-06 18:00:00 TS 9.80000 165.600 main 2081 2081 __O___________ -1 9.80000 165.600 0 1008 5 56
1972090N05154 1972 28 WP MM NOT_NAMED 1972-04-06 21:00:00 TS 9.91499 165.800 main 2103 2103 __P___________ -1 9.91499 165.800 0 1008 4 63
1972090N05154 1972 28 WP MM NOT_NAMED 1972-04-07 00:00:00 TS 10.0000 166.000 main 2125 2125 __O___________ -1 10.0000 166.000 0 1008 4 70
1972090N05154 1972 28 WP MM NOT_NAMED 1972-04-07 03:00:00 TS 10.0575 166.200 main 2146 2146 __P___________ -1 10.0575 166.200 0 1008 4 76
1972090N05154 1972 28 WP MM NOT_NAMED 1972-04-07 06:00:00 TS 10.1000 166.400 main 2159 __O___________ -1 10.1000 166.400 0 1008 4 78

Digital Typhoon Data and Search

About IBTrACS Database

This database is a web-friendly format of International Best Track Archive for Climate Stewardship (IBTrACS), a global best track data archive curated by NOAA dating back to 1842.

Updated: 2021-11-26